createdAt,value
2017-10-20T00:01:18.285Z,29.03
2017-10-20T00:03:45.886Z,37.00
2017-10-20T00:06:13.531Z,26.70
2017-10-20T00:08:41.144Z,30.43
2017-10-20T00:11:09.097Z,37.57
2017-10-20T00:13:36.676Z,35.30
2017-10-20T00:16:04.323Z,41.30
2017-10-20T00:18:31.892Z,38.37
2017-10-20T00:20:59.465Z,38.83
2017-10-20T00:23:27.120Z,47.97
2017-10-20T00:25:54.704Z,39.80
2017-10-20T00:28:22.523Z,41.63
2017-10-20T00:30:50.132Z,40.43
2017-10-20T00:33:17.696Z,39.97
2017-10-20T00:35:45.252Z,35.70
2017-10-20T00:38:12.896Z,30.87
2017-10-20T00:40:40.613Z,31.93
2017-10-20T00:43:08.184Z,37.13
2017-10-20T00:45:35.860Z,30.97
2017-10-20T00:48:03.449Z,36.57
2017-10-20T00:50:31.069Z,40.20
2017-10-20T00:52:58.688Z,34.10
2017-10-20T00:55:27.029Z,29.10
2017-10-20T00:57:54.668Z,25.63
2017-10-20T01:00:22.396Z,21.37
2017-10-20T01:02:50.032Z,24.30
2017-10-20T01:05:17.594Z,22.97
2017-10-20T01:07:45.245Z,25.57
2017-10-20T01:10:12.823Z,25.60
2017-10-20T01:12:40.405Z,28.67
2017-10-20T01:15:08.141Z,30.67
2017-10-20T01:17:35.762Z,31.40
2017-10-20T01:20:03.383Z,28.57
2017-10-20T01:22:31.957Z,28.50
2017-10-20T01:24:59.601Z,28.97
2017-10-20T01:27:27.210Z,30.27
2017-10-20T01:29:54.966Z,30.63
2017-10-20T01:32:22.610Z,29.30
2017-10-20T01:34:50.228Z,27.13
2017-10-20T01:37:17.845Z,33.80
2017-10-20T01:39:45.461Z,27.53
2017-10-20T01:42:13.152Z,28.00
2017-10-20T01:44:40.769Z,27.90
2017-10-20T01:47:08.477Z,23.27
2017-10-20T01:49:36.137Z,34.50
2017-10-20T01:52:03.761Z,35.37
2017-10-20T01:54:31.389Z,25.57
2017-10-20T01:56:59.080Z,29.83
2017-10-20T01:59:26.913Z,32.30
2017-10-20T02:01:54.597Z,36.67
2017-10-20T02:04:22.224Z,37.20
2017-10-20T02:06:49.814Z,39.93
2017-10-20T02:09:17.473Z,45.57
2017-10-20T02:11:45.085Z,40.10
2017-10-20T02:14:12.732Z,33.60
2017-10-20T02:16:40.430Z,37.60
2017-10-20T02:19:08.057Z,40.37
2017-10-20T02:21:35.638Z,39.07
2017-10-20T02:24:03.253Z,44.57
2017-10-20T02:26:30.872Z,30.77
2017-10-20T02:28:58.504Z,34.73
2017-10-20T02:31:26.176Z,30.10
2017-10-20T02:33:53.834Z,39.13
2017-10-20T02:36:21.460Z,36.80
2017-10-20T02:38:49.192Z,48.10
2017-10-20T02:41:17.040Z,32.27
2017-10-20T02:43:44.922Z,36.77
2017-10-20T02:46:12.637Z,41.47
2017-10-20T02:48:40.985Z,34.03
2017-10-20T02:51:08.616Z,30.47
2017-10-20T02:53:36.897Z,36.73
2017-10-20T02:56:04.915Z,35.17
2017-10-20T02:58:32.751Z,34.53
2017-10-20T03:01:00.762Z,32.53
2017-10-20T03:03:28.924Z,37.43
2017-10-20T03:05:56.898Z,24.60
2017-10-20T03:08:24.556Z,24.80
2017-10-20T03:10:56.444Z,31.33
2017-10-20T03:13:26.154Z,30.20
2017-10-20T03:16:00.306Z,31.83
2017-10-20T03:18:36.441Z,25.73
2017-10-20T03:21:12.243Z,32.30
2017-10-20T03:23:42.171Z,27.37
2017-10-20T03:26:11.406Z,23.37
2017-10-20T03:28:45.012Z,35.63
2017-10-20T03:31:15.728Z,31.33
2017-10-20T03:33:47.718Z,33.10
2017-10-20T03:36:21.350Z,31.80
2017-10-20T03:38:51.773Z,35.87
2017-10-20T03:41:21.843Z,31.57
2017-10-20T03:43:59.018Z,40.77
2017-10-20T03:46:29.967Z,37.20
2017-10-20T03:49:01.179Z,36.87
2017-10-20T03:51:31.709Z,37.93
2017-10-20T03:54:07.273Z,33.20
2017-10-20T03:56:36.724Z,34.00
2017-10-20T03:59:07.086Z,31.00
2017-10-20T04:01:34.950Z,31.33
2017-10-20T04:04:03.639Z,36.90
2017-10-20T04:06:31.355Z,36.10
2017-10-20T04:08:58.977Z,40.63
2017-10-20T04:11:26.660Z,35.00
2017-10-20T04:13:54.276Z,40.20
2017-10-20T04:16:21.974Z,36.10
2017-10-20T04:18:49.795Z,46.57
2017-10-20T04:21:17.391Z,36.63
2017-10-20T04:23:45.025Z,42.77
2017-10-20T04:26:12.852Z,44.17
2017-10-20T04:28:40.437Z,44.80
2017-10-20T04:31:09.217Z,40.00
2017-10-20T04:33:36.898Z,45.33
2017-10-20T04:36:04.470Z,44.23
2017-10-20T04:38:32.152Z,41.37
2017-10-20T04:40:59.808Z,36.13
2017-10-20T04:43:27.371Z,46.90
2017-10-20T04:45:55.012Z,43.03
2017-10-20T04:48:22.827Z,46.87
2017-10-20T04:50:50.439Z,46.73
2017-10-20T04:53:18.032Z,40.43
2017-10-20T04:55:45.636Z,51.80
2017-10-20T04:58:13.289Z,45.77
2017-10-20T05:00:41.077Z,43.83
2017-10-20T05:03:08.678Z,50.60
2017-10-20T05:05:36.619Z,56.20
2017-10-20T05:08:04.349Z,52.57
2017-10-20T05:10:31.940Z,50.47
2017-10-20T05:12:59.509Z,48.53
2017-10-20T05:15:27.173Z,47.53
2017-10-20T05:17:54.754Z,43.60
2017-10-20T05:20:22.324Z,45.53
2017-10-20T05:22:49.922Z,60.50
2017-10-20T05:25:17.513Z,52.83
2017-10-20T05:27:45.120Z,45.37
2017-10-20T05:30:12.758Z,52.63
2017-10-20T05:32:40.323Z,52.23
2017-10-20T05:35:07.896Z,46.70
2017-10-20T05:37:35.491Z,50.10
2017-10-20T05:40:03.106Z,51.90
2017-10-20T05:42:30.656Z,62.43
2017-10-20T05:44:58.280Z,56.03
2017-10-20T05:47:25.853Z,56.87
2017-10-20T05:49:53.476Z,66.93
2017-10-20T05:52:21.124Z,67.43
2017-10-20T05:54:48.731Z,64.60
2017-10-20T05:57:16.308Z,51.03
2017-10-20T05:59:43.993Z,59.03
2017-10-20T06:02:11.615Z,59.20
2017-10-20T06:04:39.181Z,63.30
2017-10-20T06:07:06.745Z,54.20
2017-10-20T06:09:34.363Z,57.17
2017-10-20T06:12:02.014Z,64.90
2017-10-20T06:14:29.580Z,69.83
2017-10-20T06:16:57.188Z,54.83
2017-10-20T06:19:24.753Z,38.33
2017-10-20T06:21:52.556Z,41.00
2017-10-20T06:24:20.285Z,42.00
2017-10-20T06:26:47.857Z,38.83
2017-10-20T06:29:15.471Z,37.37
2017-10-20T06:31:43.192Z,41.43
2017-10-20T06:34:11.125Z,36.07
2017-10-20T06:36:38.743Z,40.37
2017-10-20T06:39:06.380Z,34.20
2017-10-20T06:41:33.989Z,34.27
2017-10-20T06:44:01.575Z,45.00
2017-10-20T06:46:29.198Z,33.60
2017-10-20T06:48:56.997Z,31.73
2017-10-20T06:51:24.577Z,32.50
2017-10-20T06:53:52.225Z,38.93
2017-10-20T06:56:20.131Z,35.80
2017-10-20T06:58:47.688Z,37.63
2017-10-20T07:01:15.322Z,37.43
2017-10-20T07:03:42.890Z,35.30
2017-10-20T07:06:10.476Z,29.63
2017-10-20T07:08:38.100Z,35.53
2017-10-20T07:11:05.668Z,38.50
2017-10-20T07:13:33.305Z,31.60
2017-10-20T07:16:00.982Z,35.20
2017-10-20T07:18:31.861Z,29.83
2017-10-20T07:20:59.729Z,29.67
2017-10-20T07:23:28.170Z,35.17
2017-10-20T07:25:55.754Z,29.33
2017-10-20T07:28:23.322Z,30.07
2017-10-20T07:30:50.975Z,32.40
2017-10-20T07:33:18.628Z,29.67
2017-10-20T07:35:46.201Z,29.90
2017-10-20T07:38:13.805Z,41.60
2017-10-20T07:40:41.393Z,41.40
2017-10-20T07:43:08.974Z,31.80
2017-10-20T07:45:36.587Z,29.00
2017-10-20T07:48:04.238Z,28.63
2017-10-20T07:50:31.815Z,35.90
2017-10-20T07:53:00.280Z,44.03
2017-10-20T07:55:27.858Z,31.10
2017-10-20T07:57:55.459Z,43.37
2017-10-20T08:00:23.184Z,33.80
2017-10-20T08:02:50.794Z,35.23
2017-10-20T08:05:18.375Z,31.10
2017-10-20T08:07:46.002Z,30.40
2017-10-20T08:10:13.608Z,28.30
2017-10-20T08:12:41.238Z,29.60
2017-10-20T08:15:08.858Z,35.13
2017-10-20T08:17:36.467Z,31.67
2017-10-20T08:20:04.386Z,38.07
2017-10-20T08:22:31.985Z,27.53
2017-10-20T08:24:59.598Z,29.70
2017-10-20T08:27:27.460Z,36.50
2017-10-20T08:29:55.095Z,32.67
2017-10-20T08:32:22.722Z,31.33
2017-10-20T08:34:50.316Z,28.10
2017-10-20T08:37:17.947Z,31.23
2017-10-20T08:39:45.705Z,32.20
2017-10-20T08:42:13.307Z,27.70
2017-10-20T08:44:40.993Z,26.97
2017-10-20T08:47:08.621Z,34.10
2017-10-20T08:49:36.262Z,31.17
2017-10-20T08:52:03.860Z,28.40
2017-10-20T08:54:31.496Z,25.53
2017-10-20T08:56:59.058Z,27.57
2017-10-20T08:59:26.846Z,27.40
2017-10-20T09:01:54.437Z,26.17
2017-10-20T09:04:21.991Z,35.37
2017-10-20T09:06:49.551Z,26.70
2017-10-20T09:09:17.134Z,31.20
2017-10-20T09:11:45.087Z,28.83
2017-10-20T09:14:12.341Z,34.13
2017-10-20T09:16:39.925Z,26.50
2017-10-20T09:19:07.499Z,27.43
2017-10-20T09:21:35.053Z,31.17
2017-10-20T09:24:02.721Z,36.03
2017-10-20T09:26:30.305Z,24.60
2017-10-20T09:28:57.854Z,33.60
2017-10-20T09:31:25.456Z,26.20
2017-10-20T09:33:53.053Z,30.80
2017-10-20T09:36:20.691Z,27.03
2017-10-20T09:38:48.334Z,29.77
2017-10-20T09:41:15.929Z,27.23
2017-10-20T09:43:43.483Z,26.83
2017-10-20T09:46:11.092Z,42.33
2017-10-20T09:48:38.710Z,24.67
2017-10-20T09:51:06.543Z,29.47
2017-10-20T09:53:34.164Z,25.50
2017-10-20T09:56:02.518Z,27.23
2017-10-20T09:58:30.081Z,34.40
2017-10-20T10:00:57.803Z,27.60
2017-10-20T10:03:25.374Z,34.87
2017-10-20T10:05:52.993Z,31.40
2017-10-20T10:08:20.662Z,31.00
2017-10-20T10:10:48.246Z,26.23
2017-10-20T10:13:16.797Z,28.73
2017-10-20T10:15:44.409Z,27.30
2017-10-20T10:18:11.968Z,29.80
2017-10-20T10:20:40.554Z,27.20
2017-10-20T10:23:08.172Z,29.07
2017-10-20T10:25:35.764Z,28.00
2017-10-20T10:28:03.404Z,26.10
2017-10-20T10:30:31.142Z,24.77
2017-10-20T10:32:58.701Z,28.20
2017-10-20T10:35:26.299Z,29.87
2017-10-20T10:37:53.954Z,34.20
2017-10-20T10:40:21.531Z,28.60
2017-10-20T10:42:49.081Z,25.77
2017-10-20T10:45:16.710Z,25.10
2017-10-20T10:47:44.639Z,24.50
2017-10-20T10:50:12.181Z,20.57
2017-10-20T10:52:39.786Z,19.00
2017-10-20T10:55:07.328Z,22.10
2017-10-20T10:57:34.933Z,22.70
2017-10-20T11:00:04.612Z,28.90
2017-10-20T11:02:32.426Z,35.30
2017-10-20T11:05:05.933Z,22.13
2017-10-20T11:07:45.401Z,15.20
2017-10-20T11:10:24.850Z,18.70
2017-10-20T11:13:01.173Z,15.83
2017-10-20T11:15:28.766Z,19.37
2017-10-20T11:17:56.385Z,17.63
2017-10-20T11:20:23.942Z,13.73
2017-10-20T11:22:51.588Z,13.37
2017-10-20T11:25:19.182Z,18.43
2017-10-20T11:27:46.916Z,14.63
2017-10-20T11:30:14.615Z,14.33
2017-10-20T11:32:42.216Z,11.07
2017-10-20T11:35:09.813Z,10.60
2017-10-20T11:37:37.454Z,10.63
2017-10-20T11:40:05.021Z,14.57
2017-10-20T11:42:32.693Z,14.17
2017-10-20T11:45:00.396Z,21.17
2017-10-20T11:47:27.969Z,12.73
2017-10-20T11:49:55.514Z,12.40
2017-10-20T11:52:23.098Z,16.53
2017-10-20T11:54:50.883Z,10.20
2017-10-20T11:57:18.494Z,10.43
2017-10-20T11:59:46.172Z,9.33
2017-10-20T12:02:13.757Z,12.77
2017-10-20T12:04:41.668Z,12.13
2017-10-20T12:07:09.258Z,10.03
2017-10-20T12:09:36.905Z,9.90
2017-10-20T12:12:05.247Z,10.13
2017-10-20T12:14:32.864Z,8.70
2017-10-20T12:17:00.473Z,9.87
2017-10-20T12:19:28.076Z,8.60
2017-10-20T12:21:55.921Z,10.83
2017-10-20T12:24:23.554Z,8.10
2017-10-20T12:26:51.178Z,6.57
2017-10-20T12:29:18.717Z,7.03
2017-10-20T12:31:46.303Z,6.80
2017-10-20T12:34:13.841Z,7.40
2017-10-20T12:36:41.376Z,8.30
2017-10-20T12:39:09.001Z,12.83
2017-10-20T12:41:36.580Z,7.47
2017-10-20T12:44:04.114Z,6.43
2017-10-20T12:46:31.746Z,6.10
2017-10-20T12:48:59.308Z,5.83
2017-10-20T12:51:26.916Z,6.10
2017-10-20T12:53:54.500Z,7.17
2017-10-20T12:56:22.045Z,8.20
2017-10-20T12:58:49.580Z,13.17
2017-10-20T13:01:17.468Z,6.73
2017-10-20T13:03:45.361Z,8.20
2017-10-20T13:06:13.125Z,13.73
2017-10-20T13:08:41.456Z,5.93
2017-10-20T13:11:09.295Z,6.17
2017-10-20T13:13:36.864Z,5.20
2017-10-20T13:16:04.474Z,6.33
2017-10-20T13:18:32.057Z,5.90
2017-10-20T13:20:59.913Z,6.83
2017-10-20T13:23:27.532Z,5.50
2017-10-20T13:25:55.148Z,4.93
2017-10-20T13:28:22.843Z,8.27
2017-10-20T13:30:50.460Z,6.07
2017-10-20T13:33:18.094Z,5.53
2017-10-20T13:35:46.575Z,10.70
2017-10-20T13:38:14.245Z,8.33
2017-10-20T13:40:41.958Z,12.73
2017-10-20T13:43:09.583Z,12.03
2017-10-20T13:45:37.185Z,9.13
2017-10-20T13:48:04.798Z,7.13
2017-10-20T13:50:32.396Z,6.33
2017-10-20T13:53:00.021Z,9.70
2017-10-20T13:55:27.578Z,9.30
2017-10-20T13:57:55.445Z,7.23
2017-10-20T14:00:23.084Z,8.33
2017-10-20T14:02:50.752Z,12.10
2017-10-20T14:05:18.338Z,11.30
2017-10-20T14:07:45.995Z,7.13
2017-10-20T14:10:13.837Z,8.27
2017-10-20T14:12:41.434Z,6.47
2017-10-20T14:15:09.067Z,9.13
2017-10-20T14:17:36.633Z,10.83
2017-10-20T14:20:04.337Z,9.87
2017-10-20T14:22:31.994Z,14.87
2017-10-20T14:24:59.549Z,6.73
2017-10-20T14:27:27.087Z,9.63
2017-10-20T14:29:54.693Z,9.03
2017-10-20T14:32:22.306Z,13.33
2017-10-20T14:34:49.856Z,10.10
2017-10-20T14:37:17.745Z,9.87
2017-10-20T14:39:45.363Z,18.47
2017-10-20T14:42:12.946Z,9.90
2017-10-20T14:44:40.596Z,15.33
2017-10-20T14:47:08.258Z,18.60
2017-10-20T14:49:35.869Z,12.03
2017-10-20T14:52:03.636Z,12.43
2017-10-20T14:54:31.374Z,25.40
2017-10-20T14:56:59.006Z,26.97
2017-10-20T14:59:26.804Z,17.03
2017-10-20T15:01:54.474Z,13.50
2017-10-20T15:04:22.038Z,9.33
2017-10-20T15:06:49.733Z,14.10
2017-10-20T15:09:17.391Z,11.53
2017-10-20T15:11:44.971Z,8.60
2017-10-20T15:14:12.521Z,7.93
2017-10-20T15:16:40.112Z,10.90
2017-10-20T15:19:07.666Z,10.10
2017-10-20T15:21:35.448Z,11.17
2017-10-20T15:24:03.045Z,12.17
2017-10-20T15:26:30.745Z,17.80
2017-10-20T15:28:58.354Z,13.57
2017-10-20T15:31:26.007Z,17.60
2017-10-20T15:33:53.583Z,17.70
2017-10-20T15:36:21.467Z,16.00
2017-10-20T15:38:49.163Z,18.27
2017-10-20T15:41:16.775Z,13.80
2017-10-20T15:43:44.341Z,15.80
2017-10-20T15:46:12.061Z,13.30
2017-10-20T15:48:39.877Z,18.10
2017-10-20T15:51:07.513Z,18.43
2017-10-20T15:53:35.121Z,24.07
2017-10-20T15:56:03.907Z,25.40
2017-10-20T15:58:31.478Z,16.30
2017-10-20T16:00:59.080Z,15.60
2017-10-20T16:03:26.920Z,13.60
2017-10-20T16:05:54.594Z,21.30
2017-10-20T16:08:22.240Z,12.63
2017-10-20T16:10:49.808Z,17.00
2017-10-20T16:13:17.852Z,14.07
2017-10-20T16:15:45.460Z,25.37
2017-10-20T16:18:13.114Z,19.87
2017-10-20T16:20:40.797Z,27.93
2017-10-20T16:23:08.468Z,32.00
2017-10-20T16:25:36.072Z,47.83
2017-10-20T16:28:03.667Z,37.67
2017-10-20T16:30:31.318Z,51.03
2017-10-20T16:32:58.969Z,46.47
2017-10-20T16:35:26.600Z,39.07
2017-10-20T16:37:54.201Z,45.07
2017-10-20T16:40:21.821Z,37.40
2017-10-20T16:42:49.387Z,47.67
2017-10-20T16:45:17.056Z,37.33
2017-10-20T16:47:44.705Z,46.37
2017-10-20T16:50:12.295Z,46.30
2017-10-20T16:52:40.005Z,54.37
2017-10-20T16:55:07.608Z,48.60
2017-10-20T16:57:35.305Z,35.40
2017-10-20T17:00:04.490Z,48.80
2017-10-20T17:02:32.124Z,40.43
2017-10-20T17:04:59.743Z,55.47
2017-10-20T17:07:27.384Z,44.60
2017-10-20T17:09:55.006Z,47.73
2017-10-20T17:12:22.599Z,45.83
2017-10-20T17:14:51.215Z,49.10
2017-10-20T17:17:18.842Z,52.33
2017-10-20T17:19:46.469Z,49.13
2017-10-20T17:22:14.117Z,42.53
2017-10-20T17:24:41.800Z,37.83
2017-10-20T17:27:09.418Z,37.73
2017-10-20T17:29:37.058Z,42.17
2017-10-20T17:32:04.701Z,44.57
2017-10-20T17:34:32.306Z,36.27
2017-10-20T17:36:59.989Z,34.67
2017-10-20T17:39:27.624Z,36.27
2017-10-20T17:41:55.235Z,25.70
2017-10-20T17:44:23.648Z,26.17
2017-10-20T17:46:51.321Z,29.10
2017-10-20T17:49:19.624Z,25.47
2017-10-20T17:51:47.272Z,37.87
2017-10-20T17:54:14.948Z,31.40
2017-10-20T17:56:42.795Z,30.07
2017-10-20T17:59:11.713Z,34.27
2017-10-20T18:01:39.361Z,18.87
2017-10-20T18:04:07.049Z,24.27
2017-10-20T18:06:34.720Z,33.57
2017-10-20T18:09:04.483Z,28.57
2017-10-20T18:11:32.242Z,23.23
2017-10-20T18:14:00.069Z,26.37
2017-10-20T18:16:27.709Z,38.47
2017-10-20T18:18:55.941Z,29.43
2017-10-20T18:21:23.634Z,31.47
2017-10-20T18:23:51.314Z,30.27
2017-10-20T18:26:19.121Z,36.70
2017-10-20T18:28:47.362Z,29.40
2017-10-20T18:31:15.059Z,31.50
2017-10-20T18:33:42.736Z,38.77
2017-10-20T18:36:10.591Z,31.10
2017-10-20T18:38:38.275Z,35.80
2017-10-20T18:41:06.430Z,28.30
2017-10-20T18:43:34.126Z,31.57
2017-10-20T18:46:01.774Z,31.90
2017-10-20T18:48:30.117Z,32.70
2017-10-20T18:50:58.036Z,29.87
2017-10-20T18:53:28.512Z,40.07
2017-10-20T18:55:57.562Z,35.40
2017-10-20T18:58:25.337Z,34.87
2017-10-20T19:00:54.815Z,29.90
2017-10-20T19:03:27.070Z,28.20
2017-10-20T19:05:56.893Z,34.77
2017-10-20T19:08:25.636Z,41.07
2017-10-20T19:10:55.641Z,32.63
2017-10-20T19:13:25.306Z,37.27
2017-10-20T19:15:54.229Z,31.83
2017-10-20T19:18:22.473Z,41.00
2017-10-20T19:20:50.099Z,30.70
2017-10-20T19:23:17.707Z,32.10
2017-10-20T19:25:45.378Z,32.67
2017-10-20T19:28:13.155Z,26.37
2017-10-20T19:30:40.812Z,35.33
2017-10-20T19:33:08.501Z,39.03
2017-10-20T19:35:37.820Z,33.83
2017-10-20T19:38:05.631Z,35.93
2017-10-20T19:40:33.236Z,32.83
2017-10-20T19:43:00.893Z,36.70
2017-10-20T19:45:28.584Z,38.87
2017-10-20T19:47:56.244Z,38.73
2017-10-20T19:50:24.003Z,37.53
2017-10-20T19:52:51.774Z,32.40
2017-10-20T19:55:20.225Z,51.60
2017-10-20T19:57:47.836Z,32.80
2017-10-20T20:00:15.617Z,27.70
2017-10-20T20:02:43.310Z,33.43
2017-10-20T20:05:10.977Z,36.43
2017-10-20T20:07:38.612Z,33.73
2017-10-20T20:10:06.253Z,48.03
2017-10-20T20:12:34.079Z,29.13
2017-10-20T20:15:01.695Z,33.00
2017-10-20T20:17:29.292Z,59.20
2017-10-20T20:19:56.872Z,44.57
2017-10-20T20:22:25.506Z,42.70
2017-10-20T20:24:53.196Z,35.13
2017-10-20T20:27:21.561Z,45.03
2017-10-20T20:29:49.313Z,41.03
2017-10-20T20:32:17.726Z,36.40
2017-10-20T20:34:45.391Z,37.53
2017-10-20T20:37:13.120Z,37.30
2017-10-20T20:39:40.771Z,43.87
2017-10-20T20:42:08.446Z,36.87
2017-10-20T20:44:36.147Z,47.40
2017-10-20T20:47:03.826Z,41.07
2017-10-20T20:49:31.437Z,35.80
2017-10-20T20:51:59.065Z,34.37
2017-10-20T20:54:26.710Z,36.23
2017-10-20T20:56:54.326Z,42.80
2017-10-20T20:59:22.033Z,41.10
2017-10-20T21:01:49.648Z,42.60
2017-10-20T21:04:17.236Z,36.10
2017-10-20T21:06:44.917Z,31.70
2017-10-20T21:09:12.654Z,33.43
2017-10-20T21:11:40.327Z,38.10
2017-10-20T21:14:07.994Z,40.70
2017-10-20T21:16:35.642Z,48.17
2017-10-20T21:19:03.282Z,35.77
2017-10-20T21:21:30.948Z,48.77
2017-10-20T21:23:58.590Z,40.57
2017-10-20T21:26:26.193Z,34.80
2017-10-20T21:28:53.861Z,43.10
2017-10-20T21:31:21.534Z,37.17
2017-10-20T21:33:49.178Z,47.90
2017-10-20T21:36:16.773Z,46.83
2017-10-20T21:38:45.064Z,50.63
2017-10-20T21:41:12.793Z,42.20
2017-10-20T21:43:40.446Z,38.30
2017-10-20T21:46:08.089Z,47.00
2017-10-20T21:48:35.715Z,38.27
2017-10-20T21:51:03.342Z,34.43
2017-10-20T21:53:31.097Z,37.13
2017-10-20T21:55:58.737Z,37.63
2017-10-20T21:58:26.405Z,35.67
2017-10-20T22:00:54.094Z,42.03
2017-10-20T22:03:21.704Z,48.90
2017-10-20T22:05:49.372Z,43.60
2017-10-20T22:08:17.061Z,44.30
2017-10-20T22:10:44.740Z,38.50
2017-10-20T22:13:13.595Z,38.17
2017-10-20T22:15:41.259Z,34.50
2017-10-20T22:18:09.194Z,39.13
2017-10-20T22:20:36.852Z,41.50
2017-10-20T22:23:04.765Z,47.57
2017-10-20T22:25:32.430Z,37.70
2017-10-20T22:28:00.094Z,36.23
2017-10-20T22:30:29.324Z,46.20
2017-10-20T22:32:58.227Z,49.03
2017-10-20T22:35:25.985Z,38.07
2017-10-20T22:37:53.689Z,39.80
2017-10-20T22:40:21.354Z,35.67
2017-10-20T22:42:49.072Z,37.80
2017-10-20T22:45:16.717Z,39.90
2017-10-20T22:47:44.345Z,34.90
2017-10-20T22:50:11.989Z,35.80
2017-10-20T22:52:39.737Z,41.07
2017-10-20T22:55:15.202Z,35.70
2017-10-20T22:57:42.897Z,32.07
2017-10-20T23:00:10.606Z,35.73
2017-10-20T23:02:38.323Z,35.97
2017-10-20T23:05:06.114Z,34.77
2017-10-20T23:07:34.548Z,52.63
2017-10-20T23:10:02.410Z,38.70
2017-10-20T23:12:30.248Z,35.40
2017-10-20T23:14:57.929Z,32.07
2017-10-20T23:17:25.504Z,34.97
2017-10-20T23:19:53.156Z,33.23
2017-10-20T23:22:20.761Z,30.50
2017-10-20T23:24:48.463Z,34.80
2017-10-20T23:27:16.255Z,42.97
2017-10-20T23:29:44.245Z,35.77
2017-10-20T23:32:11.955Z,39.07
2017-10-20T23:34:39.548Z,37.23
2017-10-20T23:37:07.793Z,32.90
2017-10-20T23:39:35.419Z,41.00
2017-10-20T23:42:03.762Z,37.20
2017-10-20T23:44:31.409Z,34.47
2017-10-20T23:46:59.067Z,34.63
2017-10-20T23:49:26.659Z,32.67
2017-10-20T23:51:54.287Z,30.53
2017-10-20T23:54:21.947Z,38.57
2017-10-20T23:56:49.586Z,32.33
2017-10-20T23:59:17.326Z,32.33
